Flood From: 18-02-2018 16:00 Until: 19-02-2018 16:00 warning for: Flood Level: Yellow info button

Although rather usual in this region, locally or potentially dangerous phenomena are expected. (such as local winds, summer thunderstorms, rising streams or high waves) Be aware and pay attention to the latest weather updates, especially if you carry out activities exposed to weather or close to a stream or shoreline. 


Meteo18 Weather Cam more information Meteo18 Weather Cam


Thunder radar more information blitzortung!


Rain radar more information rain snow radar


Visit our other weather sites:

Template documentation
and downloads

And another site



Weather Underground History page Text

Daily Summary for July 21, 2016 Units:  Metric    English   Both
« Previous Day
Next Day »
Daily Weekly Monthly Yearly Custom
  High: Low: Average:
Temperature: -17.8 °C -8.2 °C -6.3 °C
Dew Point: -17.8 °C -9.4 °C -8.5 °C
Humidity: Humidity % 62 % 78 %
Wind Speed: 0 km/h 0 km/h 1 km/h
Wind Gust: 0 km/h - -
Wind:- - WSW
Pressure: 0 hPa 34361.1 hPa -
Precipitation: 0 mm    
Historical Graphs
 
 
Tabular Data for July 21, 2016
Time Temperature Dew Point Pressure Wind Wind Speed Wind Gust Humidity Rainfall Rate (Hourly)
-17.8 °C -17.8 °C 0 hPa Calm     Humidity % 0 mm
00:02 -5.2 °C -7.1 °C 34361.1 hPa Calm     81 % 0 mm
00:07 -5.2 °C -7.1 °C 34361.1 hPa Calm     81 % 0 mm
00:12 -5.3 °C -7.2 °C 34371.3 hPa Calm     81 % 0 mm
00:17 -5.4 °C -7.2 °C 34371.3 hPa Calm     82 % 0 mm
00:22 -5.4 °C -7.2 °C 34371.3 hPa Calm     82 % 0 mm
00:32 -5.7 °C -7.3 °C 34371.3 hPa Calm     83 % 0 mm
00:42 -5.7 °C -7.3 °C 34371.3 hPa Calm   2.6 km/h 84 % 0 mm
00:47 -5.8 °C -7.3 °C 34371.3 hPa Calm   2.6 km/h 84 % 0 mm
00:52 -5.8 °C -7.4 °C 34371.3 hPa Calm   2.6 km/h 84 % 0 mm
01:02 -5.9 °C -7.3 °C 34371.3 hPa Calm     85 % 0 mm
01:12 -5.8 °C -7.3 °C 34384.8 hPa Calm   2.6 km/h 85 % 0 mm
01:17 -5.7 °C -7.2 °C 34384.8 hPa Calm   2.6 km/h 85 % 0 mm
01:22 -5.7 °C -7.1 °C 34384.8 hPa WSW 2.6 km/h 5.1 km/h 85 % 0 mm
01:27 -5.6 °C -7.1 °C 34384.8 hPa WSW 5.1 km/h 5.1 km/h 85 % 0 mm
01:32 -5.6 °C -7 °C 34384.8 hPa SW 2.6 km/h 7.7 km/h 85 % 0 mm
01:37 -5.5 °C -7.1 °C 34384.8 hPa Calm   7.7 km/h 84 % 0 mm
01:42 -5.5 °C -7.1 °C 34384.8 hPa Calm   7.7 km/h 84 % 0 mm
01:47 -5.5 °C -7.2 °C 34384.8 hPa Calm   7.7 km/h 83 % 0 mm
01:52 -5.4 °C -7.1 °C 34384.8 hPa Calm   7.7 km/h 83 % 0 mm
01:57 -5.4 °C -7.1 °C 34384.8 hPa Calm   5.1 km/h 83 % 0 mm
02:02 -5.5 °C -7.2 °C 34384.8 hPa Calm   5.1 km/h 83 % 0 mm
02:07 -5.5 °C -7.2 °C 34384.8 hPa Calm   5.1 km/h 83 % 0 mm
02:12 -5.6 °C -7.2 °C 34384.8 hPa Calm   7.7 km/h 83 % 0 mm
02:17 -5.6 °C -7.3 °C 34384.8 hPa Calm   7.7 km/h 83 % 0 mm
02:22 -5.6 °C -7.3 °C 34384.8 hPa Calm   7.7 km/h 83 % 0 mm
02:32 -5.7 °C -7.3 °C 34384.8 hPa Calm   5.1 km/h 83 % 0 mm
02:37 -5.7 °C -7.4 °C 34395 hPa Calm   5.1 km/h 83 % 0 mm
02:42 -5.7 °C -7.4 °C 34395 hPa Calm   5.1 km/h 83 % 0 mm
02:47 -5.8 °C -7.4 °C 34395 hPa Calm   5.1 km/h 83 % 0 mm
02:52 -5.8 °C -7.4 °C 34395 hPa Calm   5.1 km/h 83 % 0 mm
02:57 -5.8 °C -7.5 °C 34395 hPa WSW 5.1 km/h 5.1 km/h 83 % 0 mm
03:02 -5.8 °C -7.5 °C 34405.1 hPa Calm   5.1 km/h 83 % 0 mm
03:07 -5.9 °C -7.6 °C 34405.1 hPa Calm   7.7 km/h 83 % 0 mm
03:12 -5.9 °C -7.6 °C 34405.1 hPa Calm   7.7 km/h 83 % 0 mm
03:17 -5.9 °C -7.6 °C 34405.1 hPa West 2.6 km/h 7.7 km/h 83 % 0 mm
03:22 -6 °C -7.7 °C 34405.1 hPa WSW 2.6 km/h 10.3 km/h 83 % 0 mm
03:32 -6.1 °C -7.7 °C 34405.1 hPa West 2.6 km/h 10.3 km/h 84 % 0 mm
03:37 -6.2 °C -7.7 °C 34405.1 hPa Calm   10.3 km/h 84 % 0 mm
03:42 -6.2 °C -7.8 °C 34405.1 hPa WSW 2.6 km/h 12.9 km/h 84 % 0 mm
03:47 -6.3 °C -7.8 °C 34405.1 hPa WSW 2.6 km/h 12.9 km/h 84 % 0 mm
03:52 -6.3 °C -7.8 °C 34405.1 hPa Calm   12.9 km/h 84 % 0 mm
03:57 -6.3 °C -7.9 °C 34405.1 hPa Calm   5.1 km/h 84 % 0 mm
04:02 -6.4 °C -7.9 °C 34405.1 hPa Calm   7.7 km/h 85 % 0 mm
04:07 -6.5 °C -7.9 °C 34405.1 hPa SW 2.6 km/h 10.3 km/h 85 % 0 mm
04:12 -6.5 °C -7.9 °C 34405.1 hPa WSW 2.6 km/h 10.3 km/h 85 % 0 mm
04:17 -6.6 °C -8 °C 34405.1 hPa SSW 2.6 km/h 5.1 km/h 85 % 0 mm
04:22 -6.6 °C -8.1 °C 34405.1 hPa WSW 2.6 km/h 10.3 km/h 85 % 0 mm
04:27 -6.7 °C -8.2 °C 34405.1 hPa Calm   10.3 km/h 85 % 0 mm
04:32 -6.8 °C -8.1 °C 34405.1 hPa WSW 2.6 km/h 10.3 km/h 86 % 0 mm
04:37 -6.8 °C -8.2 °C 34405.1 hPa Calm   10.3 km/h 86 % 0 mm
04:42 -6.9 °C -8.2 °C 34405.1 hPa Calm   10.3 km/h 86 % 0 mm
04:47 -6.9 °C -8.2 °C 34405.1 hPa Calm   7.7 km/h 87 % 0 mm
04:52 -7 °C -8.2 °C 34405.1 hPa Calm   7.7 km/h 87 % 0 mm
04:57 -7.1 °C -8.3 °C 34405.1 hPa Calm   7.7 km/h 87 % 0 mm
05:02 -7.1 °C -8.3 °C 34418.7 hPa SSW 2.6 km/h 7.7 km/h 87 % 0 mm
05:12 -7.1 °C -8.3 °C 34418.7 hPa Calm   7.7 km/h 87 % 0 mm
05:17 -7.1 °C -8.3 °C 34418.7 hPa Calm   7.7 km/h 87 % 0 mm
05:22 -7.1 °C -8.3 °C 34418.7 hPa Calm   7.7 km/h 87 % 0 mm
05:32 -7.1 °C -8.3 °C 34418.7 hPa WSW 2.6 km/h 5.1 km/h 87 % 0 mm
05:42 -7.1 °C -8.3 °C 34418.7 hPa West 2.6 km/h 5.1 km/h 87 % 0 mm
05:52 -7.1 °C -8.3 °C 34418.7 hPa Calm   5.1 km/h 87 % 0 mm
06:02 -7.1 °C -8.3 °C 34428.8 hPa WSW 5.1 km/h 7.7 km/h 87 % 0 mm
06:12 -7.2 °C -8.4 °C 34428.8 hPa Calm   7.7 km/h 87 % 0 mm
06:17 -7.2 °C -8.4 °C 34428.8 hPa Calm   7.7 km/h 87 % 0 mm
06:22 -7.2 °C -8.4 °C 34428.8 hPa Calm   7.7 km/h 87 % 0 mm
06:32 -7.3 °C -8.5 °C 34428.8 hPa Calm   5.1 km/h 87 % 0 mm
06:37 -7.3 °C -8.5 °C 34428.8 hPa Calm   5.1 km/h 87 % 0 mm
06:42 -7.3 °C -8.5 °C 34428.8 hPa WSW 2.6 km/h 5.1 km/h 87 % 0 mm
06:52 -7.3 °C -8.6 °C 34428.8 hPa SW 2.6 km/h 5.1 km/h 86 % 0 mm
06:57 -7.3 °C -8.7 °C 34428.8 hPa Calm   7.7 km/h 85 % 0 mm
07:02 -7.3 °C -8.7 °C 34428.8 hPa WSW 2.6 km/h 7.7 km/h 85 % 0 mm
07:12 -7.3 °C -8.7 °C 34428.8 hPa South 2.6 km/h 7.7 km/h 85 % 0 mm
07:22 -7.3 °C -8.9 °C 34428.8 hPa Calm   5.1 km/h 84 % 0 mm
07:32 -7.3 °C -8.9 °C 34428.8 hPa Calm   5.1 km/h 84 % 0 mm
07:42 -7.3 °C -8.9 °C 34428.8 hPa Calm   7.7 km/h 84 % 0 mm
07:52 -7.3 °C -8.9 °C 34428.8 hPa Calm   5.1 km/h 83 % 0 mm
08:02 -7.2 °C -8.7 °C 34428.8 hPa Calm   5.1 km/h 84 % 0 mm
08:12 -7.1 °C -8.7 °C 34442.4 hPa Calm   2.6 km/h 84 % 0 mm
08:22 -7.1 °C -8.8 °C 34442.4 hPa Calm   7.7 km/h 83 % 0 mm
08:32 -7.1 °C -8.8 °C 34442.4 hPa Calm   7.7 km/h 82 % 0 mm
08:37 -7.1 °C -8.8 °C 34442.4 hPa Calm   7.7 km/h 82 % 0 mm
08:47 -7 °C -8.8 °C 34442.4 hPa WSW 7.7 km/h 7.7 km/h 81 % 0 mm
08:52 -6.9 °C -8.9 °C 34442.4 hPa SW 2.6 km/h 7.7 km/h 80 % 0 mm
09:02 -6.8 °C -8.9 °C 34442.4 hPa SW 2.6 km/h 12.9 km/h 79 % 0 mm
09:12 -6.7 °C -8.8 °C 34442.4 hPa WSW 5.1 km/h 10.3 km/h 79 % 0 mm
09:17 -6.8 °C -8.8 °C 34442.4 hPa WSW 7.7 km/h 15.6 km/h 79 % 0 mm
09:27 -6.8 °C -8.9 °C 34442.4 hPa WNW 2.6 km/h 18.2 km/h 78 % 0 mm
09:32 -6.7 °C -9.1 °C 34452.6 hPa Calm   18.2 km/h 77 % 0 mm
09:42 -6.6 °C -8.9 °C 34452.6 hPa SW 5.1 km/h 18.2 km/h 77 % 0 mm
09:52 -6.4 °C -8.7 °C 34452.6 hPa Calm   10.3 km/h 77 % 0 mm
10:02 -6.1 °C -8.8 °C 34442.4 hPa WSW 2.6 km/h 10.3 km/h 73 % 0 mm
10:12 -6 °C -8.8 °C 34452.6 hPa Calm   7.7 km/h 73 % 0 mm
10:22 -6.1 °C -8.8 °C 34452.6 hPa Calm   7.7 km/h 73 % 0 mm
10:27 -6.1 °C -8.8 °C 34452.6 hPa Calm   7.7 km/h 73 % 0 mm
10:32 -6 °C -8.8 °C 34452.6 hPa Calm   10.3 km/h 73 % 0 mm
10:37 -5.9 °C -8.9 °C 34442.4 hPa South 2.6 km/h 10.3 km/h 72 % 0 mm
10:42 -5.9 °C -8.9 °C 34452.6 hPa Calm   10.3 km/h 72 % 0 mm
10:52 -5.8 °C -8.8 °C 34452.6 hPa Calm   5.1 km/h 72 % 0 mm
10:57 -5.9 °C -9.1 °C 34452.6 hPa Calm   7.7 km/h 70 % 0 mm
11:02 -5.8 °C -8.7 °C 34452.6 hPa Calm   7.7 km/h 72 % 0 mm
11:07 -5.8 °C -9 °C 34452.6 hPa Calm   7.7 km/h 70 % 0 mm
11:12 -5.9 °C -8.9 °C 34452.6 hPa Calm   10.3 km/h 71 % 0 mm
11:17 -5.8 °C -8.8 °C 34452.6 hPa Calm   10.3 km/h 71 % 0 mm
11:27 -5.7 °C -8.9 °C 34452.6 hPa Calm   5.1 km/h 69 % 0 mm
11:32 -5.6 °C -8.9 °C 34452.6 hPa SW 2.6 km/h 5.1 km/h 69 % 0 mm
11:37 -5.6 °C -8.8 °C 34442.4 hPa WNW 2.6 km/h 5.1 km/h 70 % 0 mm
11:42 -5.5 °C -8.8 °C 34452.6 hPa Calm   7.7 km/h 69 % 0 mm
11:47 -5.4 °C -8.8 °C 34452.6 hPa West 2.6 km/h 7.7 km/h 68 % 0 mm
11:52 -5.2 °C -8.7 °C 34442.4 hPa WSW 2.6 km/h 5.1 km/h 68 % 0 mm
11:57 -4.8 °C -8.6 °C 34442.4 hPa West 2.6 km/h 5.1 km/h 66 % 0 mm
12:02 -4.6 °C -8.9 °C 34442.4 hPa SW 2.6 km/h 5.1 km/h 62 % 0 mm
12:07 -4.7 °C -8.7 °C 34442.4 hPa West 2.6 km/h 7.7 km/h 64 % 0 mm
12:12 -4.7 °C -8.6 °C 34442.4 hPa Calm   7.7 km/h 65 % 0 mm
12:17 -4.7 °C -8.9 °C 34442.4 hPa Calm   7.7 km/h 63 % 0 mm
12:22 -4.6 °C -8.6 °C 34442.4 hPa East 2.6 km/h 7.7 km/h 64 % 0 mm
12:27 -4.7 °C -8.8 °C 34442.4 hPa WSW 2.6 km/h 7.7 km/h 63 % 0 mm
12:32 -4.7 °C -8.7 °C 34442.4 hPa SW 5.1 km/h 7.7 km/h 64 % 0 mm
12:37 -4.7 °C -8.7 °C 34442.4 hPa WSW 2.6 km/h 10.3 km/h 64 % 0 mm
12:47 -4.6 °C -8.8 °C 34442.4 hPa Calm   10.3 km/h 63 % 0 mm
12:52 -4.6 °C -8.9 °C 34442.4 hPa Calm   10.3 km/h 62 % 0 mm
12:57 -4.7 °C -8.6 °C 34442.4 hPa WSW 2.6 km/h 10.3 km/h 65 % 0 mm
13:02 -4.7 °C -8.7 °C 34442.4 hPa SW 2.6 km/h 10.3 km/h 64 % 0 mm
13:07 -4.8 °C -8.8 °C 34442.4 hPa Calm   10.3 km/h 64 % 0 mm
13:12 -4.8 °C -8.7 °C 34442.4 hPa Calm   10.3 km/h 65 % 0 mm
13:17 -4.8 °C -8.7 °C 34442.4 hPa Calm   10.3 km/h 65 % 0 mm
13:22 -4.8 °C -8.5 °C 34442.4 hPa WSW 5.1 km/h 7.7 km/h 66 % 0 mm
13:27 -4.8 °C -8.8 °C 34428.8 hPa Calm   7.7 km/h 64 % 0 mm
13:32 -4.9 °C -8.7 °C 34442.4 hPa WSW 5.1 km/h 10.3 km/h 65 % 0 mm
13:37 -4.9 °C -8.8 °C 34442.4 hPa ESE 5.1 km/h 10.3 km/h 65 % 0 mm
13:42 -4.9 °C -8.9 °C 34428.8 hPa Calm   10.3 km/h 64 % 0 mm
13:47 -4.9 °C -8.8 °C 34442.4 hPa Calm   10.3 km/h 65 % 0 mm
13:57 -4.8 °C -8.7 °C 34428.8 hPa WSW 2.6 km/h 10.3 km/h 65 % 0 mm
14:02 -4.8 °C -8.7 °C 34428.8 hPa Calm   10.3 km/h 65 % 0 mm
14:07 -4.8 °C -8.9 °C 34428.8 hPa Calm   10.3 km/h 63 % 0 mm
14:12 -4.8 °C -8.6 °C 34428.8 hPa Calm   10.3 km/h 66 % 0 mm
14:17 -4.6 °C -8.6 °C 34428.8 hPa Calm   7.7 km/h 64 % 0 mm
21:12 -6.1 °C -8.7 °C 34384.8 hPa Calm     74 % 0 mm
21:17 -6.2 °C -8.8 °C 34395 hPa Calm     74 % 0 mm
21:22 -6.3 °C -8.9 °C 34384.8 hPa Calm     74 % 0 mm
21:27 -6.3 °C -9 °C 34395 hPa Calm     74 % 0 mm
21:32 -6.4 °C -9.1 °C 34395 hPa Calm     74 % 0 mm
21:37 -6.4 °C -9 °C 34395 hPa Calm     75 % 0 mm
21:42 -6.4 °C -9 °C 34395 hPa Calm     75 % 0 mm
21:47 -6.5 °C -9.1 °C 34395 hPa Calm     75 % 0 mm
21:52 -6.6 °C -9.2 °C 34395 hPa Calm     75 % 0 mm
21:57 -6.7 °C -9.2 °C 34405.1 hPa Calm     76 % 0 mm
22:02 -6.8 °C -9.1 °C 34405.1 hPa Calm     77 % 0 mm
22:07 -6.9 °C -9.2 °C 34405.1 hPa Calm     77 % 0 mm
22:12 -6.9 °C -9.1 °C 34405.1 hPa Calm     78 % 0 mm
22:17 -7.1 °C -9.1 °C 34405.1 hPa Calm     79 % 0 mm
22:22 -7.2 °C -9.1 °C 34405.1 hPa Calm     80 % 0 mm
22:32 -7.3 °C -9.2 °C 34405.1 hPa Calm     81 % 0 mm
22:37 -7.4 °C -9.1 °C 34418.7 hPa Calm     82 % 0 mm
22:42 -7.4 °C -9.2 °C 34418.7 hPa Calm     82 % 0 mm
22:47 -7.6 °C -9.3 °C 34418.7 hPa Calm     82 % 0 mm
22:52 -7.6 °C -9.3 °C 34418.7 hPa Calm     82 % 0 mm
22:57 -7.7 °C -9.3 °C 34418.7 hPa Calm     83 % 0 mm
23:02 -7.7 °C -9.3 °C 34418.7 hPa Calm     83 % 0 mm
23:12 -7.9 °C -9.3 °C 34418.7 hPa Calm     85 % 0 mm
23:17 -7.9 °C -9.4 °C 34418.7 hPa Calm     85 % 0 mm
23:22 -8 °C -9.3 °C 34418.7 hPa Calm     86 % 0 mm
23:32 -8.1 °C -9.4 °C 34418.7 hPa Calm     86 % 0 mm
23:37 -8.1 °C -9.4 °C 34418.7 hPa Calm     86 % 0 mm
23:42 -8.2 °C -9.4 °C 34418.7 hPa Calm     87 % 0 mm
23:47 -8.2 °C -9.4 °C 34418.7 hPa Calm     87 % 0 mm
23:52 -8.2 °C -9.4 °C 34418.7 hPa Calm     87 % 0 mm
23:57 -8.2 °C -9.4 °C 34405.1 hPa Calm     87 % 0 mm
Meteo18
Compliments of Weather Underground - 4 mb

Script developed by  Jim McMurry - jmcmurry@mwt.net Adapted for the template by  Wim van der Kuil - Leuven-Template.eu

You find our weather info also at:

European Weather Network

Weather Underground

Equipment we use:

Weather-station
Davis Vue

Weather-program
Meteobridge

Weather-server
Raspberry PI 2 B+

Provider
1 and 1

Davis Vue

Meteobridge

Raspberry PI 2 B+

1 and 1